sensor_id;sensor_type;location;lat;lon;timestamp;P1;durP1;ratioP1;P2;durP2;ratioP2
14342;SDS011;7255;53.596;9.960;2023-03-14T00:02:19;4.87;;;3.35;;
14342;SDS011;7255;53.596;9.960;2023-03-14T00:04:47;5.12;;;3.12;;
14342;SDS011;7255;53.596;9.960;2023-03-14T00:07:13;5.30;;;3.30;;
14342;SDS011;7255;53.596;9.960;2023-03-14T00:09:39;3.75;;;3.10;;
14342;SDS011;7255;53.596;9.960;2023-03-14T00:12:06;4.68;;;2.75;;
14342;SDS011;7255;53.596;9.960;2023-03-14T00:14:33;6.50;;;3.35;;
14342;SDS011;7255;53.596;9.960;2023-03-14T00:16:59;5.10;;;3.67;;
14342;SDS011;7255;53.596;9.960;2023-03-14T00:19:26;8.15;;;3.85;;
14342;SDS011;7255;53.596;9.960;2023-03-14T00:21:53;6.37;;;3.50;;
14342;SDS011;7255;53.596;9.960;2023-03-14T00:24:19;5.00;;;3.55;;
14342;SDS011;7255;53.596;9.960;2023-03-14T00:26:46;6.10;;;3.30;;
14342;SDS011;7255;53.596;9.960;2023-03-14T00:29:12;6.05;;;3.05;;
14342;SDS011;7255;53.596;9.960;2023-03-14T00:31:39;8.70;;;3.83;;
14342;SDS011;7255;53.596;9.960;2023-03-14T00:34:05;6.40;;;3.35;;
14342;SDS011;7255;53.596;9.960;2023-03-14T00:36:32;9.25;;;3.60;;
14342;SDS011;7255;53.596;9.960;2023-03-14T00:38:59;7.85;;;3.72;;
14342;SDS011;7255;53.596;9.960;2023-03-14T00:41:26;7.87;;;3.45;;
14342;SDS011;7255;53.596;9.960;2023-03-14T00:43:52;5.30;;;2.80;;
14342;SDS011;7255;53.596;9.960;2023-03-14T00:46:18;8.43;;;2.95;;
14342;SDS011;7255;53.596;9.960;2023-03-14T00:48:45;4.90;;;2.90;;
14342;SDS011;7255;53.596;9.960;2023-03-14T00:51:12;9.63;;;2.97;;
14342;SDS011;7255;53.596;9.960;2023-03-14T00:53:40;7.97;;;3.30;;
14342;SDS011;7255;53.596;9.960;2023-03-14T00:56:09;11.12;;;3.30;;
14342;SDS011;7255;53.596;9.960;2023-03-14T00:58:37;5.37;;;2.78;;
14342;SDS011;7255;53.596;9.960;2023-03-14T01:01:06;5.03;;;3.12;;
14342;SDS011;7255;53.596;9.960;2023-03-14T01:03:34;4.43;;;2.80;;
14342;SDS011;7255;53.596;9.960;2023-03-14T01:06:08;9.98;;;3.72;;
14342;SDS011;7255;53.596;9.960;2023-03-14T01:08:36;8.52;;;3.58;;
14342;SDS011;7255;53.596;9.960;2023-03-14T01:11:04;9.25;;;3.10;;
14342;SDS011;7255;53.596;9.960;2023-03-14T01:13:33;6.43;;;2.90;;
14342;SDS011;7255;53.596;9.960;2023-03-14T01:16:01;7.12;;;3.20;;
14342;SDS011;7255;53.596;9.960;2023-03-14T01:18:29;7.05;;;3.12;;
14342;SDS011;7255;53.596;9.960;2023-03-14T01:20:55;9.23;;;3.20;;
14342;SDS011;7255;53.596;9.960;2023-03-14T01:23:21;6.90;;;3.42;;
14342;SDS011;7255;53.596;9.960;2023-03-14T01:25:48;9.13;;;3.25;;
14342;SDS011;7255;53.596;9.960;2023-03-14T01:28:14;6.30;;;3.05;;
14342;SDS011;7255;53.596;9.960;2023-03-14T01:30:42;8.10;;;3.55;;
14342;SDS011;7255;53.596;9.960;2023-03-14T01:33:08;6.25;;;2.95;;
14342;SDS011;7255;53.596;9.960;2023-03-14T01:35:36;6.37;;;3.03;;
14342;SDS011;7255;53.596;9.960;2023-03-14T01:38:02;4.32;;;2.80;;
14342;SDS011;7255;53.596;9.960;2023-03-14T01:40:28;12.30;;;3.17;;
14342;SDS011;7255;53.596;9.960;2023-03-14T01:42:55;8.32;;;2.58;;
14342;SDS011;7255;53.596;9.960;2023-03-14T01:48:49;7.07;;;3.05;;
14342;SDS011;7255;53.596;9.960;2023-03-14T01:51:21;6.22;;;3.45;;
14342;SDS011;7255;53.596;9.960;2023-03-14T01:53:51;6.85;;;3.75;;
14342;SDS011;7255;53.596;9.960;2023-03-14T01:56:20;7.40;;;3.28;;
14342;SDS011;7255;53.596;9.960;2023-03-14T01:58:48;5.40;;;2.95;;
14342;SDS011;7255;53.596;9.960;2023-03-14T02:01:16;7.35;;;3.33;;
14342;SDS011;7255;53.596;9.960;2023-03-14T02:03:46;5.70;;;3.15;;
14342;SDS011;7255;53.596;9.960;2023-03-14T02:06:19;5.15;;;3.30;;
14342;SDS011;7255;53.596;9.960;2023-03-14T02:08:48;10.18;;;3.72;;
14342;SDS011;7255;53.596;9.960;2023-03-14T02:11:15;8.65;;;3.62;;
14342;SDS011;7255;53.596;9.960;2023-03-14T02:13:43;10.50;;;4.10;;
14342;SDS011;7255;53.596;9.960;2023-03-14T02:16:09;6.90;;;3.22;;
14342;SDS011;7255;53.596;9.960;2023-03-14T02:18:36;10.10;;;3.80;;
14342;SDS011;7255;53.596;9.960;2023-03-14T02:21:05;9.85;;;3.78;;
14342;SDS011;7255;53.596;9.960;2023-03-14T02:23:39;8.57;;;3.85;;
14342;SDS011;7255;53.596;9.960;2023-03-14T02:26:14;10.25;;;3.50;;
14342;SDS011;7255;53.596;9.960;2023-03-14T02:28:45;7.10;;;3.70;;
14342;SDS011;7255;53.596;9.960;2023-03-14T02:31:11;5.12;;;3.80;;
14342;SDS011;7255;53.596;9.960;2023-03-14T02:33:39;9.07;;;3.97;;
14342;SDS011;7255;53.596;9.960;2023-03-14T02:36:07;4.72;;;3.30;;
14342;SDS011;7255;53.596;9.960;2023-03-14T02:38:37;7.90;;;3.92;;
14342;SDS011;7255;53.596;9.960;2023-03-14T02:41:10;8.82;;;4.05;;
14342;SDS011;7255;53.596;9.960;2023-03-14T02:43:36;7.12;;;3.78;;
14342;SDS011;7255;53.596;9.960;2023-03-14T02:46:04;4.87;;;3.75;;
14342;SDS011;7255;53.596;9.960;2023-03-14T02:48:33;9.45;;;3.92;;
14342;SDS011;7255;53.596;9.960;2023-03-14T02:51:04;9.82;;;4.47;;
14342;SDS011;7255;53.596;9.960;2023-03-14T02:53:31;7.60;;;4.22;;
14342;SDS011;7255;53.596;9.960;2023-03-14T02:55:59;11.48;;;4.53;;
14342;SDS011;7255;53.596;9.960;2023-03-14T02:58:26;8.10;;;3.95;;
14342;SDS011;7255;53.596;9.960;2023-03-14T03:00:53;9.15;;;4.55;;
14342;SDS011;7255;53.596;9.960;2023-03-14T03:03:21;7.87;;;3.78;;
14342;SDS011;7255;53.596;9.960;2023-03-14T03:05:47;7.53;;;3.87;;
14342;SDS011;7255;53.596;9.960;2023-03-14T03:08:15;9.10;;;4.28;;
14342;SDS011;7255;53.596;9.960;2023-03-14T03:10:41;6.85;;;3.83;;
14342;SDS011;7255;53.596;9.960;2023-03-14T03:13:08;6.28;;;3.78;;
14342;SDS011;7255;53.596;9.960;2023-03-14T03:15:34;5.25;;;3.70;;
14342;SDS011;7255;53.596;9.960;2023-03-14T03:18:00;7.00;;;4.10;;
14342;SDS011;7255;53.596;9.960;2023-03-14T03:20:28;7.18;;;3.83;;
14342;SDS011;7255;53.596;9.960;2023-03-14T03:22:54;8.15;;;4.45;;
14342;SDS011;7255;53.596;9.960;2023-03-14T03:25:20;8.95;;;3.95;;
14342;SDS011;7255;53.596;9.960;2023-03-14T03:27:47;5.62;;;3.90;;
14342;SDS011;7255;53.596;9.960;2023-03-14T03:30:14;6.80;;;4.15;;
14342;SDS011;7255;53.596;9.960;2023-03-14T03:32:40;4.93;;;3.72;;
14342;SDS011;7255;53.596;9.960;2023-03-14T03:35:07;10.55;;;4.72;;
14342;SDS011;7255;53.596;9.960;2023-03-14T03:37:35;8.27;;;3.92;;
14342;SDS011;7255;53.596;9.960;2023-03-14T03:40:03;9.70;;;3.45;;
14342;SDS011;7255;53.596;9.960;2023-03-14T03:42:31;7.75;;;3.47;;
14342;SDS011;7255;53.596;9.960;2023-03-14T03:44:57;5.55;;;3.15;;
14342;SDS011;7255;53.596;9.960;2023-03-14T03:47:24;9.73;;;3.03;;
14342;SDS011;7255;53.596;9.960;2023-03-14T03:49:51;6.07;;;3.10;;
14342;SDS011;7255;53.596;9.960;2023-03-14T03:52:17;5.87;;;3.40;;
14342;SDS011;7255;53.596;9.960;2023-03-14T03:54:46;7.32;;;3.53;;
14342;SDS011;7255;53.596;9.960;2023-03-14T03:57:13;6.35;;;3.75;;
14342;SDS011;7255;53.596;9.960;2023-03-14T03:59:39;4.97;;;3.25;;
14342;SDS011;7255;53.596;9.960;2023-03-14T04:02:06;7.85;;;3.20;;
14342;SDS011;7255;53.596;9.960;2023-03-14T04:04:32;6.12;;;3.53;;
14342;SDS011;7255;53.596;9.960;2023-03-14T04:06:59;8.75;;;3.50;;
14342;SDS011;7255;53.596;9.960;2023-03-14T04:09:25;6.60;;;3.30;;
14342;SDS011;7255;53.596;9.960;2023-03-14T04:11:53;9.75;;;3.40;;
14342;SDS011;7255;53.596;9.960;2023-03-14T04:14:19;6.47;;;3.40;;
14342;SDS011;7255;53.596;9.960;2023-03-14T04:16:45;9.32;;;3.90;;
14342;SDS011;7255;53.596;9.960;2023-03-14T04:19:12;5.68;;;3.70;;
14342;SDS011;7255;53.596;9.960;2023-03-14T04:21:38;6.07;;;3.40;;
14342;SDS011;7255;53.596;9.960;2023-03-14T04:24:05;5.57;;;3.65;;
14342;SDS011;7255;53.596;9.960;2023-03-14T04:26:31;8.05;;;2.95;;
14342;SDS011;7255;53.596;9.960;2023-03-14T04:28:59;7.07;;;3.30;;
14342;SDS011;7255;53.596;9.960;2023-03-14T04:31:25;5.85;;;3.72;;
14342;SDS011;7255;53.596;9.960;2023-03-14T04:33:52;4.93;;;3.10;;
14342;SDS011;7255;53.596;9.960;2023-03-14T04:36:18;5.95;;;3.58;;
14342;SDS011;7255;53.596;9.960;2023-03-14T04:38:44;5.32;;;3.67;;
14342;SDS011;7255;53.596;9.960;2023-03-14T04:41:11;9.75;;;4.00;;
14342;SDS011;7255;53.596;9.960;2023-03-14T04:43:37;6.57;;;3.97;;
14342;SDS011;7255;53.596;9.960;2023-03-14T04:46:05;6.43;;;3.83;;
14342;SDS011;7255;53.596;9.960;2023-03-14T04:48:32;7.82;;;4.22;;
14342;SDS011;7255;53.596;9.960;2023-03-14T04:50:58;9.65;;;4.40;;
14342;SDS011;7255;53.596;9.960;2023-03-14T04:53:25;6.20;;;3.95;;
14342;SDS011;7255;53.596;9.960;2023-03-14T04:55:52;6.43;;;3.72;;
14342;SDS011;7255;53.596;9.960;2023-03-14T04:58:20;4.05;;;3.35;;
14342;SDS011;7255;53.596;9.960;2023-03-14T05:00:47;5.57;;;3.15;;
14342;SDS011;7255;53.596;9.960;2023-03-14T05:13:00;3.25;;;1.80;;
14342;SDS011;7255;53.596;9.960;2023-03-14T05:15:26;3.25;;;2.22;;
14342;SDS011;7255;53.596;9.960;2023-03-14T05:17:52;3.22;;;2.62;;
14342;SDS011;7255;53.596;9.960;2023-03-14T05:20:20;6.72;;;2.58;;
14342;SDS011;7255;53.596;9.960;2023-03-14T05:22:47;8.48;;;2.95;;
14342;SDS011;7255;53.596;9.960;2023-03-14T05:25:13;4.95;;;2.65;;
14342;SDS011;7255;53.596;9.960;2023-03-14T05:27:40;4.10;;;3.25;;
14342;SDS011;7255;53.596;9.960;2023-03-14T05:30:06;5.78;;;2.78;;
14342;SDS011;7255;53.596;9.960;2023-03-14T05:32:36;6.90;;;3.62;;
14342;SDS011;7255;53.596;9.960;2023-03-14T05:35:02;5.40;;;3.00;;
14342;SDS011;7255;53.596;9.960;2023-03-14T05:37:30;4.25;;;2.80;;
14342;SDS011;7255;53.596;9.960;2023-03-14T05:39:56;6.22;;;3.33;;
14342;SDS011;7255;53.596;9.960;2023-03-14T05:42:23;6.32;;;4.20;;
14342;SDS011;7255;53.596;9.960;2023-03-14T05:44:49;7.57;;;3.83;;
14342;SDS011;7255;53.596;9.960;2023-03-14T05:47:15;6.30;;;4.10;;
14342;SDS011;7255;53.596;9.960;2023-03-14T05:49:41;7.10;;;4.15;;
14342;SDS011;7255;53.596;9.960;2023-03-14T05:52:08;6.35;;;4.60;;
14342;SDS011;7255;53.596;9.960;2023-03-14T05:54:35;9.25;;;5.20;;
14342;SDS011;7255;53.596;9.960;2023-03-14T05:57:02;7.10;;;4.68;;
14342;SDS011;7255;53.596;9.960;2023-03-14T05:59:28;9.73;;;5.43;;
14342;SDS011;7255;53.596;9.960;2023-03-14T06:01:55;7.70;;;4.50;;
14342;SDS011;7255;53.596;9.960;2023-03-14T06:04:21;9.15;;;6.00;;
14342;SDS011;7255;53.596;9.960;2023-03-14T06:06:47;12.13;;;6.22;;
14342;SDS011;7255;53.596;9.960;2023-03-14T06:09:14;10.63;;;5.75;;
14342;SDS011;7255;53.596;9.960;2023-03-14T06:11:41;13.88;;;6.45;;
14342;SDS011;7255;53.596;9.960;2023-03-14T06:14:08;10.93;;;6.93;;
14342;SDS011;7255;53.596;9.960;2023-03-14T06:16:34;12.80;;;7.78;;
14342;SDS011;7255;53.596;9.960;2023-03-14T06:19:00;15.40;;;7.12;;
14342;SDS011;7255;53.596;9.960;2023-03-14T06:21:26;13.10;;;7.15;;
14342;SDS011;7255;53.596;9.960;2023-03-14T06:23:53;12.07;;;7.25;;
14342;SDS011;7255;53.596;9.960;2023-03-14T06:26:19;10.65;;;7.45;;
14342;SDS011;7255;53.596;9.960;2023-03-14T06:28:48;12.57;;;7.70;;
14342;SDS011;7255;53.596;9.960;2023-03-14T06:31:15;13.85;;;7.47;;
14342;SDS011;7255;53.596;9.960;2023-03-14T06:33:42;14.25;;;7.32;;
14342;SDS011;7255;53.596;9.960;2023-03-14T06:36:08;10.00;;;7.65;;
14342;SDS011;7255;53.596;9.960;2023-03-14T06:38:35;11.38;;;7.12;;
14342;SDS011;7255;53.596;9.960;2023-03-14T06:41:02;20.35;;;7.62;;
14342;SDS011;7255;53.596;9.960;2023-03-14T06:43:30;12.18;;;7.82;;
14342;SDS011;7255;53.596;9.960;2023-03-14T06:45:57;9.60;;;7.47;;
14342;SDS011;7255;53.596;9.960;2023-03-14T06:48:24;11.82;;;7.57;;
14342;SDS011;7255;53.596;9.960;2023-03-14T06:50:50;10.38;;;8.20;;
14342;SDS011;7255;53.596;9.960;2023-03-14T06:53:16;13.68;;;7.82;;
14342;SDS011;7255;53.596;9.960;2023-03-14T06:55:43;9.38;;;7.37;;
14342;SDS011;7255;53.596;9.960;2023-03-14T06:58:10;14.32;;;7.95;;
14342;SDS011;7255;53.596;9.960;2023-03-14T07:00:37;12.90;;;6.90;;
14342;SDS011;7255;53.596;9.960;2023-03-14T07:03:04;12.07;;;6.50;;
14342;SDS011;7255;53.596;9.960;2023-03-14T07:05:31;11.63;;;6.12;;
14342;SDS011;7255;53.596;9.960;2023-03-14T07:07:57;7.60;;;5.07;;
14342;SDS011;7255;53.596;9.960;2023-03-14T07:10:23;10.55;;;6.28;;
14342;SDS011;7255;53.596;9.960;2023-03-14T07:12:50;7.87;;;4.45;;
14342;SDS011;7255;53.596;9.960;2023-03-14T07:15:17;7.28;;;3.85;;
14342;SDS011;7255;53.596;9.960;2023-03-14T07:17:44;11.15;;;4.43;;
14342;SDS011;7255;53.596;9.960;2023-03-14T07:20:11;8.10;;;3.90;;
14342;SDS011;7255;53.596;9.960;2023-03-14T07:22:38;8.02;;;3.65;;
14342;SDS011;7255;53.596;9.960;2023-03-14T07:25:05;7.97;;;3.25;;
14342;SDS011;7255;53.596;9.960;2023-03-14T07:27:34;7.90;;;3.40;;
14342;SDS011;7255;53.596;9.960;2023-03-14T07:30:00;6.62;;;2.92;;
14342;SDS011;7255;53.596;9.960;2023-03-14T07:32:26;8.48;;;3.45;;
14342;SDS011;7255;53.596;9.960;2023-03-14T07:34:53;10.55;;;3.15;;
14342;SDS011;7255;53.596;9.960;2023-03-14T07:37:20;5.03;;;3.00;;
14342;SDS011;7255;53.596;9.960;2023-03-14T07:39:47;8.98;;;2.85;;
14342;SDS011;7255;53.596;9.960;2023-03-14T07:42:13;7.47;;;2.83;;
14342;SDS011;7255;53.596;9.960;2023-03-14T07:44:39;5.85;;;2.97;;
14342;SDS011;7255;53.596;9.960;2023-03-14T07:47:05;5.70;;;2.87;;
14342;SDS011;7255;53.596;9.960;2023-03-14T07:49:32;5.97;;;3.35;;
14342;SDS011;7255;53.596;9.960;2023-03-14T07:51:58;8.82;;;3.95;;
14342;SDS011;7255;53.596;9.960;2023-03-14T07:54:26;6.80;;;3.20;;
14342;SDS011;7255;53.596;9.960;2023-03-14T07:56:52;6.60;;;3.20;;
14342;SDS011;7255;53.596;9.960;2023-03-14T07:59:19;4.57;;;3.53;;
14342;SDS011;7255;53.596;9.960;2023-03-14T08:01:45;5.75;;;2.60;;
14342;SDS011;7255;53.596;9.960;2023-03-14T08:04:11;4.75;;;2.62;;
14342;SDS011;7255;53.596;9.960;2023-03-14T08:06:38;4.65;;;2.25;;
14342;SDS011;7255;53.596;9.960;2023-03-14T08:09:04;3.90;;;2.45;;
14342;SDS011;7255;53.596;9.960;2023-03-14T08:11:32;5.55;;;2.97;;
14342;SDS011;7255;53.596;9.960;2023-03-14T08:13:58;5.03;;;2.22;;
14342;SDS011;7255;53.596;9.960;2023-03-14T08:16:25;3.97;;;2.40;;
14342;SDS011;7255;53.596;9.960;2023-03-14T08:18:51;3.90;;;2.55;;
14342;SDS011;7255;53.596;9.960;2023-03-14T08:21:17;5.37;;;2.33;;
14342;SDS011;7255;53.596;9.960;2023-03-14T08:23:44;3.67;;;2.35;;
14342;SDS011;7255;53.596;9.960;2023-03-14T08:26:10;4.35;;;2.45;;
14342;SDS011;7255;53.596;9.960;2023-03-14T08:28:38;4.15;;;2.15;;
14342;SDS011;7255;53.596;9.960;2023-03-14T08:31:04;4.00;;;2.58;;
14342;SDS011;7255;53.596;9.960;2023-03-14T08:33:30;6.55;;;2.45;;
14342;SDS011;7255;53.596;9.960;2023-03-14T08:35:58;2.92;;;1.90;;
14342;SDS011;7255;53.596;9.960;2023-03-14T08:38:25;5.68;;;2.42;;
14342;SDS011;7255;53.596;9.960;2023-03-14T08:40:54;4.43;;;2.42;;
14342;SDS011;7255;53.596;9.960;2023-03-14T08:43:22;6.75;;;2.72;;
14342;SDS011;7255;53.596;9.960;2023-03-14T08:45:49;6.28;;;2.83;;
14342;SDS011;7255;53.596;9.960;2023-03-14T08:48:16;7.62;;;3.20;;
14342;SDS011;7255;53.596;9.960;2023-03-14T08:50:42;2.70;;;2.45;;
14342;SDS011;7255;53.596;9.960;2023-03-14T08:53:08;8.55;;;2.87;;
14342;SDS011;7255;53.596;9.960;2023-03-14T08:55:35;5.75;;;2.95;;
14342;SDS011;7255;53.596;9.960;2023-03-14T08:58:01;10.43;;;3.28;;
14342;SDS011;7255;53.596;9.960;2023-03-14T09:00:27;7.28;;;3.30;;
14342;SDS011;7255;53.596;9.960;2023-03-14T09:02:55;6.55;;;3.12;;
14342;SDS011;7255;53.596;9.960;2023-03-14T09:05:21;7.70;;;3.90;;
14342;SDS011;7255;53.596;9.960;2023-03-14T09:07:48;6.47;;;3.75;;
14342;SDS011;7255;53.596;9.960;2023-03-14T09:10:14;6.60;;;4.35;;
14342;SDS011;7255;53.596;9.960;2023-03-14T09:12:40;10.60;;;3.97;;
14342;SDS011;7255;53.596;9.960;2023-03-14T09:15:07;9.02;;;3.90;;
14342;SDS011;7255;53.596;9.960;2023-03-14T09:17:34;6.62;;;3.65;;
14342;SDS011;7255;53.596;9.960;2023-03-14T09:20:02;6.90;;;3.30;;
14342;SDS011;7255;53.596;9.960;2023-03-14T09:22:30;5.22;;;3.70;;
14342;SDS011;7255;53.596;9.960;2023-03-14T09:24:57;5.62;;;4.00;;
14342;SDS011;7255;53.596;9.960;2023-03-14T09:27:24;13.02;;;5.32;;
14342;SDS011;7255;53.596;9.960;2023-03-14T09:29:50;10.02;;;4.40;;
14342;SDS011;7255;53.596;9.960;2023-03-14T09:32:16;7.28;;;4.62;;
14342;SDS011;7255;53.596;9.960;2023-03-14T09:34:43;8.32;;;4.18;;
14342;SDS011;7255;53.596;9.960;2023-03-14T09:37:10;7.05;;;4.78;;
14342;SDS011;7255;53.596;9.960;2023-03-14T09:39:37;7.80;;;4.18;;
14342;SDS011;7255;53.596;9.960;2023-03-14T09:42:04;6.78;;;4.07;;
14342;SDS011;7255;53.596;9.960;2023-03-14T09:44:34;5.10;;;4.03;;
14342;SDS011;7255;53.596;9.960;2023-03-14T09:47:05;7.35;;;4.28;;
14342;SDS011;7255;53.596;9.960;2023-03-14T09:49:34;10.45;;;4.20;;
14342;SDS011;7255;53.596;9.960;2023-03-14T09:52:05;3.70;;;1.92;;
14342;SDS011;7255;53.596;9.960;2023-03-14T09:54:39;2.75;;;1.60;;
14342;SDS011;7255;53.596;9.960;2023-03-14T09:57:11;1.48;;;1.37;;
14342;SDS011;7255;53.596;9.960;2023-03-14T09:59:41;4.97;;;2.22;;
14342;SDS011;7255;53.596;9.960;2023-03-14T10:02:14;3.12;;;1.90;;
14342;SDS011;7255;53.596;9.960;2023-03-14T10:04:43;2.67;;;1.75;;
14342;SDS011;7255;53.596;9.960;2023-03-14T10:07:12;3.53;;;1.63;;
14342;SDS011;7255;53.596;9.960;2023-03-14T10:09:43;3.07;;;2.00;;
14342;SDS011;7255;53.596;9.960;2023-03-14T10:12:11;3.53;;;1.80;;
14342;SDS011;7255;53.596;9.960;2023-03-14T10:14:38;2.23;;;1.90;;
14342;SDS011;7255;53.596;9.960;2023-03-14T10:17:12;2.73;;;1.70;;
14342;SDS011;7255;53.596;9.960;2023-03-14T10:19:50;2.37;;;2.17;;
14342;SDS011;7255;53.596;9.960;2023-03-14T10:22:18;3.07;;;2.50;;
14342;SDS011;7255;53.596;9.960;2023-03-14T10:24:47;3.57;;;2.10;;
14342;SDS011;7255;53.596;9.960;2023-03-14T10:27:18;2.07;;;1.50;;
14342;SDS011;7255;53.596;9.960;2023-03-14T10:29:51;1.67;;;1.57;;
14342;SDS011;7255;53.596;9.960;2023-03-14T10:32:19;4.23;;;1.87;;
14342;SDS011;7255;53.596;9.960;2023-03-14T10:34:46;2.57;;;1.50;;
14342;SDS011;7255;53.596;9.960;2023-03-14T10:37:31;1.37;;;1.27;;
14342;SDS011;7255;53.596;9.960;2023-03-14T10:39:59;1.53;;;1.40;;
14342;SDS011;7255;53.596;9.960;2023-03-14T10:42:30;1.77;;;1.53;;
14342;SDS011;7255;53.596;9.960;2023-03-14T10:45:00;1.57;;;1.50;;
14342;SDS011;7255;53.596;9.960;2023-03-14T10:47:28;1.60;;;1.50;;
14342;SDS011;7255;53.596;9.960;2023-03-14T10:49:54;1.33;;;1.33;;
14342;SDS011;7255;53.596;9.960;2023-03-14T10:52:22;1.47;;;1.37;;
14342;SDS011;7255;53.596;9.960;2023-03-14T10:54:53;2.20;;;1.50;;
14342;SDS011;7255;53.596;9.960;2023-03-14T10:57:24;3.33;;;1.70;;
14342;SDS011;7255;53.596;9.960;2023-03-14T10:59:51;1.50;;;1.40;;
14342;SDS011;7255;53.596;9.960;2023-03-14T11:02:32;1.70;;;1.60;;
14342;SDS011;7255;53.596;9.960;2023-03-14T11:05:16;1.63;;;1.53;;
14342;SDS011;7255;53.596;9.960;2023-03-14T11:07:51;2.00;;;1.80;;
14342;SDS011;7255;53.596;9.960;2023-03-14T11:10:20;2.03;;;1.40;;
14342;SDS011;7255;53.596;9.960;2023-03-14T11:12:57;1.80;;;1.70;;
14342;SDS011;7255;53.596;9.960;2023-03-14T11:15:34;4.00;;;1.80;;
14342;SDS011;7255;53.596;9.960;2023-03-14T11:18:08;2.80;;;1.90;;
14342;SDS011;7255;53.596;9.960;2023-03-14T11:20:45;2.30;;;1.83;;
14342;SDS011;7255;53.596;9.960;2023-03-14T11:23:18;1.90;;;1.80;;
14342;SDS011;7255;53.596;9.960;2023-03-14T11:25:48;1.90;;;1.80;;
14342;SDS011;7255;53.596;9.960;2023-03-14T11:28:28;1.80;;;1.70;;
14342;SDS011;7255;53.596;9.960;2023-03-14T11:31:00;2.43;;;1.47;;
14342;SDS011;7255;53.596;9.960;2023-03-14T11:33:35;3.57;;;2.00;;
14342;SDS011;7255;53.596;9.960;2023-03-14T11:36:04;3.17;;;1.93;;
14342;SDS011;7255;53.596;9.960;2023-03-14T11:38:34;2.53;;;1.60;;
14342;SDS011;7255;53.596;9.960;2023-03-14T11:41:04;3.67;;;2.00;;
14342;SDS011;7255;53.596;9.960;2023-03-14T11:43:38;2.00;;;1.90;;
14342;SDS011;7255;53.596;9.960;2023-03-14T11:46:08;4.80;;;2.13;;
14342;SDS011;7255;53.596;9.960;2023-03-14T11:48:41;7.23;;;2.00;;
14342;SDS011;7255;53.596;9.960;2023-03-14T11:51:13;3.13;;;2.00;;
14342;SDS011;7255;53.596;9.960;2023-03-14T11:53:48;4.37;;;2.27;;
14342;SDS011;7255;53.596;9.960;2023-03-14T11:56:24;2.57;;;1.77;;
14342;SDS011;7255;53.596;9.960;2023-03-14T11:58:57;7.17;;;1.97;;
14342;SDS011;7255;53.596;9.960;2023-03-14T12:01:27;4.23;;;1.90;;
14342;SDS011;7255;53.596;9.960;2023-03-14T12:04:09;6.80;;;2.20;;
14342;SDS011;7255;53.596;9.960;2023-03-14T12:06:44;4.23;;;2.77;;
14342;SDS011;7255;53.596;9.960;2023-03-14T12:09:14;7.90;;;2.50;;
14342;SDS011;7255;53.596;9.960;2023-03-14T12:11:43;4.97;;;3.10;;
14342;SDS011;7255;53.596;9.960;2023-03-14T12:14:18;7.87;;;3.10;;
14342;SDS011;7255;53.596;9.960;2023-03-14T12:16:47;6.00;;;2.20;;
14342;SDS011;7255;53.596;9.960;2023-03-14T12:22:05;3.37;;;2.20;;
14342;SDS011;7255;53.596;9.960;2023-03-14T12:24:39;7.67;;;3.10;;
14342;SDS011;7255;53.596;9.960;2023-03-14T12:27:13;8.27;;;2.00;;
14342;SDS011;7255;53.596;9.960;2023-03-14T12:30:26;5.20;;;2.30;;
14342;SDS011;7255;53.596;9.960;2023-03-14T12:36:01;3.33;;;1.97;;
14342;SDS011;7255;53.596;9.960;2023-03-14T12:38:32;4.70;;;2.17;;
14342;SDS011;7255;53.596;9.960;2023-03-14T12:41:12;5.67;;;2.80;;
14342;SDS011;7255;53.596;9.960;2023-03-14T12:43:41;4.80;;;2.10;;
14342;SDS011;7255;53.596;9.960;2023-03-14T12:46:14;10.33;;;3.33;;
14342;SDS011;7255;53.596;9.960;2023-03-14T12:48:45;6.83;;;2.43;;
14342;SDS011;7255;53.596;9.960;2023-03-14T12:51:13;11.07;;;3.10;;
14342;SDS011;7255;53.596;9.960;2023-03-14T12:53:49;7.20;;;3.33;;
14342;SDS011;7255;53.596;9.960;2023-03-14T12:56:28;5.17;;;2.37;;
14342;SDS011;7255;53.596;9.960;2023-03-14T12:59:13;5.27;;;2.60;;
14342;SDS011;7255;53.596;9.960;2023-03-14T13:02:16;9.47;;;2.80;;
14342;SDS011;7255;53.596;9.960;2023-03-14T13:04:48;8.13;;;2.30;;
14342;SDS011;7255;53.596;9.960;2023-03-14T13:07:29;10.87;;;3.27;;
14342;SDS011;7255;53.596;9.960;2023-03-14T13:10:02;6.77;;;2.90;;
14342;SDS011;7255;53.596;9.960;2023-03-14T13:12:46;11.17;;;2.80;;
14342;SDS011;7255;53.596;9.960;2023-03-14T13:15:17;10.03;;;3.30;;
14342;SDS011;7255;53.596;9.960;2023-03-14T13:17:48;8.03;;;2.83;;
14342;SDS011;7255;53.596;9.960;2023-03-14T13:20:19;11.37;;;3.00;;
14342;SDS011;7255;53.596;9.960;2023-03-14T13:22:50;9.27;;;2.83;;
14342;SDS011;7255;53.596;9.960;2023-03-14T13:25:16;7.67;;;2.97;;
14342;SDS011;7255;53.596;9.960;2023-03-14T13:27:45;12.37;;;3.40;;
14342;SDS011;7255;53.596;9.960;2023-03-14T13:30:14;4.20;;;2.67;;
14342;SDS011;7255;53.596;9.960;2023-03-14T13:32:43;5.77;;;2.37;;
14342;SDS011;7255;53.596;9.960;2023-03-14T13:35:16;4.47;;;2.63;;
14342;SDS011;7255;53.596;9.960;2023-03-14T13:37:43;6.13;;;2.77;;
14342;SDS011;7255;53.596;9.960;2023-03-14T13:40:18;5.33;;;2.20;;
14342;SDS011;7255;53.596;9.960;2023-03-14T13:42:46;3.90;;;2.27;;
14342;SDS011;7255;53.596;9.960;2023-03-14T13:45:13;6.67;;;2.43;;
14342;SDS011;7255;53.596;9.960;2023-03-14T13:47:40;8.10;;;2.40;;
14342;SDS011;7255;53.596;9.960;2023-03-14T13:50:12;8.77;;;3.00;;
14342;SDS011;7255;53.596;9.960;2023-03-14T13:52:41;8.43;;;2.50;;
14342;SDS011;7255;53.596;9.960;2023-03-14T13:55:13;9.07;;;2.60;;
14342;SDS011;7255;53.596;9.960;2023-03-14T13:57:42;7.47;;;2.60;;
14342;SDS011;7255;53.596;9.960;2023-03-14T14:00:16;10.67;;;2.57;;
14342;SDS011;7255;53.596;9.960;2023-03-14T14:02:45;6.07;;;2.60;;
14342;SDS011;7255;53.596;9.960;2023-03-14T14:05:13;6.43;;;2.47;;
14342;SDS011;7255;53.596;9.960;2023-03-14T14:07:41;10.33;;;2.83;;
14342;SDS011;7255;53.596;9.960;2023-03-14T14:10:10;6.17;;;3.37;;
14342;SDS011;7255;53.596;9.960;2023-03-14T14:12:39;7.33;;;3.00;;
14342;SDS011;7255;53.596;9.960;2023-03-14T14:15:15;3.87;;;2.50;;
14342;SDS011;7255;53.596;9.960;2023-03-14T14:17:45;8.37;;;2.33;;
14342;SDS011;7255;53.596;9.960;2023-03-14T14:20:18;5.13;;;2.27;;
14342;SDS011;7255;53.596;9.960;2023-03-14T14:27:42;7.68;;;2.92;;
14342;SDS011;7255;53.596;9.960;2023-03-14T14:30:24;8.60;;;2.60;;
14342;SDS011;7255;53.596;9.960;2023-03-14T14:33:06;5.10;;;2.30;;
14342;SDS011;7255;53.596;9.960;2023-03-14T14:35:36;7.43;;;2.30;;
14342;SDS011;7255;53.596;9.960;2023-03-14T14:38:08;7.67;;;2.83;;
14342;SDS011;7255;53.596;9.960;2023-03-14T14:40:43;10.80;;;2.83;;
14342;SDS011;7255;53.596;9.960;2023-03-14T14:43:10;8.63;;;2.60;;
14342;SDS011;7255;53.596;9.960;2023-03-14T14:45:43;7.70;;;2.63;;
14342;SDS011;7255;53.596;9.960;2023-03-14T14:48:11;6.20;;;2.30;;
14342;SDS011;7255;53.596;9.960;2023-03-14T14:50:44;4.03;;;2.33;;
14342;SDS011;7255;53.596;9.960;2023-03-14T14:53:22;7.53;;;2.57;;
14342;SDS011;7255;53.596;9.960;2023-03-14T14:55:53;4.40;;;2.00;;
14342;SDS011;7255;53.596;9.960;2023-03-14T14:58:23;5.78;;;2.30;;
14342;SDS011;7255;53.596;9.960;2023-03-14T15:00:51;5.20;;;2.62;;
14342;SDS011;7255;53.596;9.960;2023-03-14T15:03:21;10.95;;;2.80;;
14342;SDS011;7255;53.596;9.960;2023-03-14T15:05:47;7.15;;;2.40;;
14342;SDS011;7255;53.596;9.960;2023-03-14T15:08:14;6.20;;;2.70;;
14342;SDS011;7255;53.596;9.960;2023-03-14T15:10:41;6.47;;;2.60;;
14342;SDS011;7255;53.596;9.960;2023-03-14T15:13:08;7.00;;;2.70;;
14342;SDS011;7255;53.596;9.960;2023-03-14T15:15:34;7.43;;;2.33;;
14342;SDS011;7255;53.596;9.960;2023-03-14T15:18:01;8.15;;;3.03;;
14342;SDS011;7255;53.596;9.960;2023-03-14T15:20:27;9.50;;;2.70;;
14342;SDS011;7255;53.596;9.960;2023-03-14T15:22:53;10.00;;;2.60;;
14342;SDS011;7255;53.596;9.960;2023-03-14T15:25:20;9.55;;;3.30;;
14342;SDS011;7255;53.596;9.960;2023-03-14T15:27:47;9.18;;;2.80;;
14342;SDS011;7255;53.596;9.960;2023-03-14T15:30:14;8.82;;;3.58;;
14342;SDS011;7255;53.596;9.960;2023-03-14T15:32:42;8.98;;;2.40;;
14342;SDS011;7255;53.596;9.960;2023-03-14T15:35:08;9.02;;;2.78;;